Time;durP1;ratioP1;P1;durP2;ratioP2;P2;SDS_P1;SDS_P2;PMS_P1;PMS_P2;Temp;Humidity;BMP_temperature;BMP_pressure;BME280_temperature;BME280_humidity;BME280_pressure;Samples;Min_cycle;Max_cycle;Signal;HPM_P1;HPM_P2
2023/01/17 00:01:04;;;;;;;;;;;19.20;41.00;;;;;;3055551;19;4496;-23
2023/01/17 00:02:05;;;;;;;;;;;19.20;40.30;;;;;;3054845;19;4500;-23
2023/01/17 00:03:06;;;;;;;;;;;19.10;40.40;;;;;;3053969;19;4293;-23
2023/01/17 00:10:43;;;;;;;;;;;19.10;40.30;;;;;;3054889;19;4552;-23
2023/01/17 00:11:43;;;;;;;;;;;19.20;40.50;;;;;;3055253;19;4457;-23
2023/01/17 00:12:51;;;;;;;;;;;19.20;40.40;;;;;;3055149;19;4543;-23
2023/01/17 00:13:52;;;;;;;;;;;19.10;40.30;;;;;;3055519;19;4472;-23
2023/01/17 00:14:53;;;;;;;;;;;19.10;40.30;;;;;;3055354;19;4429;-23
2023/01/17 00:15:54;;;;;;;;;;;19.10;40.40;;;;;;3055521;19;4561;-24
2023/01/17 00:16:55;;;;;;;;;;;19.10;40.20;;;;;;3055507;19;4530;-23
2023/01/17 00:17:55;;;;;;;;;;;19.10;40.30;;;;;;3054265;19;4329;-23
2023/01/17 00:26:02;;;;;;;;;;;19.10;40.50;;;;;;3052162;19;4445;-24
2023/01/17 01:33:42;;;;;;;;;;;18.80;40.40;;;;;;3057298;19;4599;-23
2023/01/17 01:34:42;;;;;;;;;;;18.80;40.40;;;;;;3054952;19;4423;-23
2023/01/17 01:35:44;;;;;;;;;;;18.80;40.30;;;;;;3057299;19;4571;-23
2023/01/17 01:36:45;;;;;;;;;;;18.80;40.30;;;;;;3056028;19;4556;-23
2023/01/17 01:37:46;;;;;;;;;;;18.80;40.30;;;;;;3055992;19;4557;-23
2023/01/17 01:38:47;;;;;;;;;;;18.80;40.20;;;;;;3056277;19;4548;-24
2023/01/17 01:39:47;;;;;;;;;;;18.80;40.30;;;;;;3056274;19;4676;-24
2023/01/17 01:40:50;;;;;;;;;;;18.80;40.20;;;;;;3057268;19;4459;-24
2023/01/17 01:41:50;;;;;;;;;;;18.80;40.30;;;;;;3055603;19;4499;-24
2023/01/17 01:42:52;;;;;;;;;;;18.80;40.30;;;;;;3057020;19;4607;-23
2023/01/17 01:43:53;;;;;;;;;;;18.80;41.00;;;;;;3055857;19;4570;-26
2023/01/17 01:44:54;;;;;;;;;;;18.80;40.30;;;;;;3056607;19;4554;-23
2023/01/17 01:45:55;;;;;;;;;;;18.80;40.30;;;;;;3057175;19;4554;-23
2023/01/17 01:46:55;;;;;;;;;;;18.80;40.30;;;;;;3056158;19;4376;-23
2023/01/17 01:48:22;;;;;;;;;;;18.80;40.50;;;;;;3055328;19;4887;-24
2023/01/17 01:49:23;;;;;;;;;;;18.80;40.40;;;;;;2951880;19;2004317;-23
2023/01/17 01:50:24;;;;;;;;;;;18.80;40.40;;;;;;3055526;19;4665;-23
2023/01/17 01:51:28;;;;;;;;;;;18.70;40.30;;;;;;3056487;19;4360;-23
2023/01/17 01:52:29;;;;;;;;;;;18.80;40.30;;;;;;3056323;19;4401;-23
2023/01/17 01:53:31;;;;;;;;;;;18.70;40.40;;;;;;3055535;19;4516;-24
2023/01/17 01:54:41;;;;;;;;;;;18.70;40.40;;;;;;3055133;19;4538;-23
2023/01/17 01:55:44;;;;;;;;;;;18.70;40.30;;;;;;3056378;19;4540;-23
2023/01/17 01:56:44;;;;;;;;;;;18.70;40.30;;;;;;3055348;19;4412;-23
2023/01/17 01:57:47;;;;;;;;;;;18.70;40.30;;;;;;3056009;19;4559;-23
2023/01/17 01:58:49;;;;;;;;;;;18.70;40.40;;;;;;3056717;19;4558;-24
2023/01/17 01:59:55;;;;;;;;;;;18.70;40.30;;;;;;3056800;19;4622;-23
2023/01/17 02:00:56;;;;;;;;;;;18.70;40.30;;;;;;3057569;19;4635;-31
2023/01/17 02:01:57;;;;;;;;;;;18.70;40.50;;;;;;3057075;19;4319;-29
2023/01/17 02:02:58;;;;;;;;;;;18.70;40.40;;;;;;3056737;19;4470;-33
2023/01/17 02:03:59;;;;;;;;;;;18.70;40.40;;;;;;3055828;19;4411;-31
2023/01/17 02:05:00;;;;;;;;;;;18.70;40.40;;;;;;3055719;19;4408;-30
2023/01/17 02:06:21;;;;;;;;;;;18.70;40.40;;;;;;3055755;19;4540;-29
2023/01/17 02:07:29;;;;;;;;;;;18.70;40.30;;;;;;2952883;19;2004126;-28
2023/01/17 02:08:30;;;;;;;;;;;18.60;40.40;;;;;;3055677;19;4983;-29
2023/01/17 02:09:31;;;;;;;;;;;18.70;40.30;;;;;;3055872;19;4505;-27
2023/01/17 02:10:35;;;;;;;;;;;18.60;40.30;;;;;;3055964;19;4545;-29
2023/01/17 02:11:36;;;;;;;;;;;18.70;40.40;;;;;;3054946;19;4450;-30
2023/01/17 02:12:37;;;;;;;;;;;18.70;40.40;;;;;;3056906;19;4388;-29
2023/01/17 02:13:38;;;;;;;;;;;18.60;40.30;;;;;;3055728;19;4608;-26
2023/01/17 02:14:39;;;;;;;;;;;18.60;40.30;;;;;;3054951;19;4543;-28
2023/01/17 02:16:13;;;;;;;;;;;18.60;40.30;;;;;;3054872;19;4397;-29
2023/01/17 02:17:26;;;;;;;;;;;18.60;40.30;;;;;;3055828;19;4435;-27
2023/01/17 02:19:04;;;;;;;;;;;18.60;40.40;;;;;;3055455;19;4519;-28
2023/01/17 02:20:26;;;;;;;;;;;18.60;40.20;;;;;;3054265;19;4302;-27
2023/01/17 02:21:30;;;;;;;;;;;18.60;40.30;;;;;;2952600;19;2004171;-27
2023/01/17 02:22:52;;;;;;;;;;;18.60;40.10;;;;;;3054595;19;4508;-28
2023/01/17 02:24:20;;;;;;;;;;;18.60;40.20;;;;;;3054104;19;4383;-29
2023/01/17 02:25:59;;;;;;;;;;;18.60;40.30;;;;;;2952003;19;2004242;-31
2023/01/17 02:27:25;;;;;;;;;;;18.60;40.20;;;;;;3055348;19;4458;-28
2023/01/17 02:28:26;;;;;;;;;;;18.60;40.40;;;;;;2951772;19;2004383;-28
2023/01/17 02:29:45;;;;;;;;;;;18.60;40.20;;;;;;3055975;19;4563;-28
2023/01/17 02:30:47;;;;;;;;;;;18.60;40.20;;;;;;3054913;19;4445;-30
2023/01/17 02:31:53;;;;;;;;;;;18.60;40.30;;;;;;3053843;19;4340;-27
2023/01/17 02:33:01;;;;;;;;;;;18.60;40.10;;;;;;3055055;19;4537;-27
2023/01/17 02:34:21;;;;;;;;;;;18.60;40.20;;;;;;3055056;19;4512;-29
2023/01/17 02:35:46;;;;;;;;;;;18.60;40.20;;;;;;2952364;19;2004183;-27
2023/01/17 02:36:56;;;;;;;;;;;18.50;40.20;;;;;;3055400;19;4569;-27
2023/01/17 02:38:16;;;;;;;;;;;18.50;40.20;;;;;;3054146;19;4549;-29
2023/01/17 02:39:20;;;;;;;;;;;18.50;40.10;;;;;;2951612;19;2004640;-30
2023/01/17 02:40:44;;;;;;;;;;;18.60;40.10;;;;;;3054431;19;4550;-27
2023/01/17 02:41:46;;;;;;;;;;;18.60;40.10;;;;;;3054766;19;4546;-31
2023/01/17 02:42:50;;;;;;;;;;;18.50;40.10;;;;;;3053979;19;4553;-31
2023/01/17 02:43:52;;;;;;;;;;;18.50;40.10;;;;;;3054615;19;4417;-30
2023/01/17 02:44:52;;;;;;;;;;;18.50;40.10;;;;;;3055585;19;4531;-28
2023/01/17 02:45:53;;;;;;;;;;;18.50;40.10;;;;;;3054652;19;4470;-30
2023/01/17 02:46:55;;;;;;;;;;;18.50;40.10;;;;;;3055293;19;4465;-30
2023/01/17 02:47:56;;;;;;;;;;;18.50;40.00;;;;;;3055283;19;4627;-26
2023/01/17 02:48:56;;;;;;;;;;;18.50;40.10;;;;;;3054763;19;4514;-31
2023/01/17 02:50:00;;;;;;;;;;;18.50;40.00;;;;;;3054915;19;4489;-29
2023/01/17 02:51:38;;;;;;;;;;;18.60;40.20;;;;;;3053801;19;4537;-28
2023/01/17 02:52:58;;;;;;;;;;;18.50;40.20;;;;;;2953034;19;2004330;-29
2023/01/17 02:54:06;;;;;;;;;;;18.50;40.10;;;;;;3055082;19;5034;-30
2023/01/17 02:55:24;;;;;;;;;;;18.50;40.10;;;;;;3054148;19;4404;-26
2023/01/17 02:56:41;;;;;;;;;;;18.50;40.20;;;;;;3054289;19;4390;-28
2023/01/17 02:57:56;;;;;;;;;;;18.50;40.20;;;;;;3055357;19;4382;-27
2023/01/17 02:59:19;;;;;;;;;;;18.50;40.20;;;;;;3053835;19;4641;-28
2023/01/17 03:00:21;;;;;;;;;;;18.50;40.00;;;;;;2952517;19;2004023;-28
2023/01/17 03:01:47;;;;;;;;;;;18.50;40.20;;;;;;3053616;19;5081;-30
2023/01/17 03:03:19;;;;;;;;;;;18.50;40.20;;;;;;3056224;19;4486;-27
2023/01/17 03:04:22;;;;;;;;;;;18.50;40.10;;;;;;2950506;19;2004301;-30
2023/01/17 03:05:37;;;;;;;;;;;18.50;40.20;;;;;;3053273;19;4448;-28
2023/01/17 03:06:47;;;;;;;;;;;18.50;40.20;;;;;;3053893;19;4396;-27
2023/01/17 03:07:49;;;;;;;;;;;18.50;40.10;;;;;;3053209;19;4552;-29
2023/01/17 03:08:49;;;;;;;;;;;18.50;40.10;;;;;;3055164;19;4404;-27
2023/01/17 03:09:52;;;;;;;;;;;18.50;40.10;;;;;;3055076;19;4558;-30
2023/01/17 03:10:53;;;;;;;;;;;18.50;40.20;;;;;;3054946;19;4540;-30
2023/01/17 03:11:54;;;;;;;;;;;18.50;40.10;;;;;;3054284;19;5089;-30
2023/01/17 03:12:56;;;;;;;;;;;18.40;40.00;;;;;;3054663;19;4409;-31
2023/01/17 03:13:57;;;;;;;;;;;18.40;40.00;;;;;;3053771;19;4338;-31
2023/01/17 03:14:57;;;;;;;;;;;18.40;40.10;;;;;;3053772;19;4314;-30
2023/01/17 03:15:58;;;;;;;;;;;18.40;40.10;;;;;;3054320;19;4331;-29
2023/01/17 03:16:59;;;;;;;;;;;18.40;40.00;;;;;;3055217;19;4352;-30
2023/01/17 03:18:02;;;;;;;;;;;18.40;39.90;;;;;;3054650;19;4340;-28
2023/01/17 03:19:03;;;;;;;;;;;18.40;40.20;;;;;;3055206;19;4485;-28
2023/01/17 03:20:04;;;;;;;;;;;18.40;40.10;;;;;;3054907;19;4477;-28
2023/01/17 03:21:04;;;;;;;;;;;18.40;40.00;;;;;;3054538;19;4318;-31
2023/01/17 03:22:05;;;;;;;;;;;18.40;40.20;;;;;;3054579;19;4192;-30
2023/01/17 03:23:06;;;;;;;;;;;18.40;40.00;;;;;;3053935;19;6528;-35
2023/01/17 03:24:06;;;;;;;;;;;18.40;40.00;;;;;;3054787;19;4443;-27
2023/01/17 03:25:08;;;;;;;;;;;18.40;40.20;;;;;;3056289;19;4505;-27
2023/01/17 03:26:08;;;;;;;;;;;18.40;40.00;;;;;;3055367;19;4363;-28
2023/01/17 03:27:09;;;;;;;;;;;18.40;40.10;;;;;;3054444;19;4557;-28
2023/01/17 03:28:10;;;;;;;;;;;18.40;40.10;;;;;;3054696;19;4480;-28
2023/01/17 03:29:10;;;;;;;;;;;18.40;40.00;;;;;;3054402;19;4484;-28
2023/01/17 03:30:11;;;;;;;;;;;18.40;40.00;;;;;;3055408;19;4491;-27
2023/01/17 03:31:15;;;;;;;;;;;18.40;40.00;;;;;;3055466;19;4545;-30
2023/01/17 03:32:16;;;;;;;;;;;18.40;40.00;;;;;;3055578;19;4562;-27
2023/01/17 03:33:17;;;;;;;;;;;18.40;40.00;;;;;;3055848;19;4421;-27
2023/01/17 03:34:17;;;;;;;;;;;18.40;39.90;;;;;;3054982;19;4532;-28
2023/01/17 03:35:18;;;;;;;;;;;18.40;40.70;;;;;;3054995;19;4594;-30
2023/01/17 03:36:19;;;;;;;;;;;18.40;40.20;;;;;;3053704;19;4567;-28
2023/01/17 03:37:19;;;;;;;;;;;18.40;40.20;;;;;;3053962;19;4455;-27
2023/01/17 03:38:20;;;;;;;;;;;18.40;40.00;;;;;;3054420;19;4586;-31
2023/01/17 03:39:21;;;;;;;;;;;18.40;40.20;;;;;;3055031;19;4433;-27
2023/01/17 03:40:22;;;;;;;;;;;18.40;40.00;;;;;;3055362;19;5104;-27
2023/01/17 03:41:22;;;;;;;;;;;18.40;40.10;;;;;;3055589;19;4731;-27
2023/01/17 03:42:23;;;;;;;;;;;18.40;40.00;;;;;;3054891;19;4748;-27
2023/01/17 03:43:23;;;;;;;;;;;18.40;40.10;;;;;;3054588;19;4596;-27
2023/01/17 03:44:24;;;;;;;;;;;18.30;40.10;;;;;;3054331;19;4572;-31
2023/01/17 03:45:25;;;;;;;;;;;18.30;39.90;;;;;;3055530;19;4362;-27
2023/01/17 03:46:27;;;;;;;;;;;18.30;40.00;;;;;;3055971;19;4392;-28
2023/01/17 03:47:28;;;;;;;;;;;18.30;40.00;;;;;;3054834;19;4732;-27
2023/01/17 03:48:28;;;;;;;;;;;18.30;39.80;;;;;;3055272;19;4426;-28
2023/01/17 03:49:30;;;;;;;;;;;18.30;39.90;;;;;;3055793;19;4660;-27
2023/01/17 03:50:30;;;;;;;;;;;18.30;39.80;;;;;;3053914;19;4597;-30
2023/01/17 03:51:31;;;;;;;;;;;18.30;39.90;;;;;;3055855;19;4627;-30
2023/01/17 03:52:32;;;;;;;;;;;18.30;39.90;;;;;;3054610;19;4568;-29
2023/01/17 03:53:32;;;;;;;;;;;18.30;39.90;;;;;;3055130;19;4530;-28
2023/01/17 03:54:33;;;;;;;;;;;18.30;39.90;;;;;;3055311;19;4544;-28
2023/01/17 03:55:33;;;;;;;;;;;18.30;39.90;;;;;;3055181;19;4381;-31
2023/01/17 03:56:34;;;;;;;;;;;18.30;39.70;;;;;;3055357;19;4373;-27
2023/01/17 03:57:35;;;;;;;;;;;18.30;39.90;;;;;;3055655;19;4440;-27
2023/01/17 03:58:35;;;;;;;;;;;18.30;39.90;;;;;;3055461;19;4603;-28
2023/01/17 03:59:36;;;;;;;;;;;18.30;39.90;;;;;;3055565;19;5243;-29
2023/01/17 04:00:37;;;;;;;;;;;18.30;39.80;;;;;;3055599;19;4534;-27
2023/01/17 04:01:37;;;;;;;;;;;18.30;39.90;;;;;;3055473;19;4396;-28
2023/01/17 04:02:38;;;;;;;;;;;18.30;39.80;;;;;;3054413;19;4376;-28
2023/01/17 04:03:39;;;;;;;;;;;18.30;39.80;;;;;;3055384;19;4384;-31
2023/01/17 04:04:39;;;;;;;;;;;18.30;39.80;;;;;;3053796;19;4548;-27
2023/01/17 04:05:40;;;;;;;;;;;18.30;39.90;;;;;;3054496;19;4685;-27
2023/01/17 04:06:41;;;;;;;;;;;18.30;39.80;;;;;;3053445;19;4495;-27
2023/01/17 04:07:41;;;;;;;;;;;18.30;39.80;;;;;;3055036;19;4381;-27
2023/01/17 04:08:42;;;;;;;;;;;18.30;39.80;;;;;;3053778;19;4386;-26
2023/01/17 04:09:43;;;;;;;;;;;18.30;39.80;;;;;;3054525;19;4363;-29
2023/01/17 04:10:43;;;;;;;;;;;18.30;39.80;;;;;;3054741;19;4534;-29
2023/01/17 04:11:44;;;;;;;;;;;18.20;39.80;;;;;;3055512;19;4441;-29
2023/01/17 04:12:45;;;;;;;;;;;18.30;39.90;;;;;;3053652;19;4380;-28
2023/01/17 04:13:45;;;;;;;;;;;18.20;39.80;;;;;;3055021;19;4526;-27
2023/01/17 04:14:47;;;;;;;;;;;18.30;39.70;;;;;;3054272;19;4490;-28
2023/01/17 04:15:48;;;;;;;;;;;18.20;39.80;;;;;;3054998;19;4558;-28
2023/01/17 04:16:49;;;;;;;;;;;18.20;39.80;;;;;;3054263;19;4504;-29
2023/01/17 04:17:50;;;;;;;;;;;18.20;39.80;;;;;;3053473;19;4570;-28
2023/01/17 04:18:50;;;;;;;;;;;18.20;39.70;;;;;;3053332;19;4391;-27
2023/01/17 04:19:51;;;;;;;;;;;18.20;39.60;;;;;;3053075;19;4311;-31
2023/01/17 04:20:52;;;;;;;;;;;18.20;39.70;;;;;;3053930;19;4533;-29
2023/01/17 04:21:52;;;;;;;;;;;18.20;40.40;;;;;;3052186;19;4707;-30
2023/01/17 04:22:53;;;;;;;;;;;18.20;39.70;;;;;;3053835;19;4490;-31
2023/01/17 04:23:54;;;;;;;;;;;18.20;39.70;;;;;;3054338;19;4550;-30
2023/01/17 04:24:54;;;;;;;;;;;18.20;39.80;;;;;;3054146;19;4488;-31
2023/01/17 04:25:55;;;;;;;;;;;18.20;39.70;;;;;;3054693;19;4381;-30
2023/01/17 04:26:56;;;;;;;;;;;18.20;39.70;;;;;;3052581;19;4390;-27
2023/01/17 04:27:57;;;;;;;;;;;18.20;39.60;;;;;;3054562;19;4350;-32
2023/01/17 04:28:58;;;;;;;;;;;18.20;39.70;;;;;;3054195;19;4640;-28
2023/01/17 04:29:58;;;;;;;;;;;18.20;39.70;;;;;;3055273;19;4325;-32
2023/01/17 04:30:59;;;;;;;;;;;18.20;39.70;;;;;;3053787;19;4343;-31
2023/01/17 04:31:59;;;;;;;;;;;18.20;39.60;;;;;;3053973;19;4326;-30
2023/01/17 04:33:00;;;;;;;;;;;18.20;39.70;;;;;;3054305;19;4444;-29
2023/01/17 04:34:01;;;;;;;;;;;18.20;39.60;;;;;;3053203;19;4522;-30
2023/01/17 04:35:03;;;;;;;;;;;18.20;39.60;;;;;;3054256;19;4446;-30
2023/01/17 04:36:05;;;;;;;;;;;18.20;39.40;;;;;;3054412;19;4494;-30
2023/01/17 04:37:06;;;;;;;;;;;18.20;39.40;;;;;;3053757;19;4476;-30
2023/01/17 04:38:06;;;;;;;;;;;18.20;39.30;;;;;;3053908;19;4518;-28
2023/01/17 04:39:07;;;;;;;;;;;18.20;39.20;;;;;;3053766;19;4508;-29
2023/01/17 04:40:08;;;;;;;;;;;18.30;39.30;;;;;;3054592;19;4538;-30
2023/01/17 04:41:09;;;;;;;;;;;18.40;39.20;;;;;;3053777;19;4508;-30
2023/01/17 04:42:09;;;;;;;;;;;18.40;38.90;;;;;;3052984;19;4408;-28
2023/01/17 04:43:10;;;;;;;;;;;18.50;38.90;;;;;;3053738;19;4510;-31
2023/01/17 04:44:11;;;;;;;;;;;18.50;39.00;;;;;;3054944;19;972;-29
2023/01/17 04:45:11;;;;;;;;;;;18.60;38.60;;;;;;3053820;19;4482;-32
2023/01/17 04:46:12;;;;;;;;;;;18.60;38.50;;;;;;3054251;19;4488;-30
2023/01/17 04:47:13;;;;;;;;;;;18.60;38.40;;;;;;3052529;19;4368;-31
2023/01/17 04:48:13;;;;;;;;;;;18.60;38.50;;;;;;3054666;19;4375;-28
2023/01/17 04:49:14;;;;;;;;;;;18.60;38.30;;;;;;3053285;19;4526;-31
2023/01/17 04:50:15;;;;;;;;;;;18.60;38.30;;;;;;3053377;19;4517;-32
2023/01/17 04:51:15;;;;;;;;;;;18.60;38.30;;;;;;3054311;19;4509;-30
2023/01/17 04:52:18;;;;;;;;;;;18.60;38.40;;;;;;3054205;19;4512;-30
2023/01/17 04:53:19;;;;;;;;;;;18.60;38.40;;;;;;3054515;19;4404;-30
2023/01/17 04:54:19;;;;;;;;;;;18.60;38.30;;;;;;3054309;19;4650;-29
2023/01/17 04:55:20;;;;;;;;;;;18.70;38.30;;;;;;3053495;19;4562;-30
2023/01/17 04:56:21;;;;;;;;;;;18.80;38.10;;;;;;3053944;19;4543;-32
2023/01/17 04:57:21;;;;;;;;;;;18.80;38.00;;;;;;3053611;19;4497;-29
2023/01/17 04:58:22;;;;;;;;;;;18.90;38.00;;;;;;3054455;19;4524;-32
2023/01/17 04:59:23;;;;;;;;;;;18.90;37.90;;;;;;3053854;19;4601;-29
2023/01/17 05:00:23;;;;;;;;;;;18.90;37.80;;;;;;3054045;19;4699;-29
2023/01/17 05:01:24;;;;;;;;;;;18.90;37.80;;;;;;3054793;19;4510;-29
2023/01/17 05:02:25;;;;;;;;;;;18.90;37.80;;;;;;3054065;19;4450;-31
2023/01/17 05:03:25;;;;;;;;;;;18.90;37.80;;;;;;3054080;19;4407;-28
2023/01/17 05:04:26;;;;;;;;;;;18.90;37.80;;;;;;3054196;19;4351;-31
2023/01/17 05:05:27;;;;;;;;;;;18.90;37.80;;;;;;3054209;19;4642;-30
2023/01/17 05:06:27;;;;;;;;;;;18.90;37.70;;;;;;3053013;19;4556;-28
2023/01/17 05:07:28;;;;;;;;;;;18.90;37.70;;;;;;3052655;19;4394;-28
2023/01/17 05:08:29;;;;;;;;;;;18.90;37.80;;;;;;3052329;19;4506;-29
2023/01/17 05:09:29;;;;;;;;;;;18.90;37.80;;;;;;3053585;19;4369;-32
2023/01/17 05:10:30;;;;;;;;;;;18.90;37.70;;;;;;3053278;19;4542;-30
2023/01/17 05:11:31;;;;;;;;;;;18.90;37.70;;;;;;3053232;19;4354;-30
2023/01/17 05:12:32;;;;;;;;;;;18.90;37.70;;;;;;3053617;19;4399;-28
2023/01/17 05:13:32;;;;;;;;;;;18.90;37.70;;;;;;3053987;19;4388;-29
2023/01/17 05:14:33;;;;;;;;;;;18.90;37.80;;;;;;3054183;19;4550;-30
2023/01/17 05:15:35;;;;;;;;;;;18.90;37.80;;;;;;3054036;19;4598;-32
2023/01/17 05:16:35;;;;;;;;;;;18.90;37.80;;;;;;3054387;19;4537;-30
2023/01/17 05:17:36;;;;;;;;;;;18.90;37.80;;;;;;3053320;19;4543;-29
2023/01/17 05:18:36;;;;;;;;;;;18.80;37.80;;;;;;3053176;19;4537;-33
2023/01/17 05:19:37;;;;;;;;;;;18.80;37.70;;;;;;3052297;19;4536;-28
2023/01/17 05:20:38;;;;;;;;;;;18.80;37.80;;;;;;3054313;19;4381;-26
2023/01/17 05:21:38;;;;;;;;;;;18.80;37.70;;;;;;3053285;19;4602;-29
2023/01/17 05:22:39;;;;;;;;;;;18.80;37.80;;;;;;3053912;19;4411;-30
2023/01/17 05:23:41;;;;;;;;;;;18.80;37.70;;;;;;3053518;19;4729;-33
2023/01/17 05:24:42;;;;;;;;;;;18.80;37.80;;;;;;3053580;19;4468;-29
2023/01/17 05:25:43;;;;;;;;;;;18.80;37.80;;;;;;3052627;19;4549;-29
2023/01/17 05:26:44;;;;;;;;;;;18.80;37.70;;;;;;3053794;19;4605;-30
2023/01/17 05:27:45;;;;;;;;;;;18.80;37.80;;;;;;3054078;19;4395;-28
2023/01/17 05:28:45;;;;;;;;;;;18.80;37.80;;;;;;3052723;19;4543;-32
2023/01/17 05:29:46;;;;;;;;;;;18.90;37.90;;;;;;3054248;19;4383;-32
2023/01/17 05:30:47;;;;;;;;;;;18.90;37.80;;;;;;3052931;19;4559;-29
2023/01/17 05:31:47;;;;;;;;;;;19.00;37.80;;;;;;3053319;19;4503;-29
2023/01/17 05:32:49;;;;;;;;;;;19.00;37.70;;;;;;3054066;19;4642;-29
2023/01/17 05:33:50;;;;;;;;;;;19.10;37.50;;;;;;3053993;19;4371;-31
2023/01/17 05:34:50;;;;;;;;;;;19.10;37.30;;;;;;3054312;19;4474;-31
2023/01/17 05:35:51;;;;;;;;;;;19.10;37.30;;;;;;3054356;19;4618;-30
2023/01/17 05:36:52;;;;;;;;;;;19.10;37.30;;;;;;3054629;19;5008;-32
2023/01/17 05:37:53;;;;;;;;;;;19.20;37.30;;;;;;3054259;19;4520;-32
2023/01/17 05:38:53;;;;;;;;;;;19.20;37.30;;;;;;3054413;19;4468;-31
2023/01/17 05:39:54;;;;;;;;;;;19.30;37.30;;;;;;3052596;19;4506;-30
2023/01/17 05:40:54;;;;;;;;;;;19.30;37.20;;;;;;3054228;19;4509;-29
2023/01/17 05:41:55;;;;;;;;;;;19.30;37.10;;;;;;3053280;19;4520;-26
2023/01/17 05:42:56;;;;;;;;;;;19.40;37.10;;;;;;3053494;19;4483;-29
2023/01/17 05:43:57;;;;;;;;;;;19.30;37.00;;;;;;3054074;19;4468;-27
2023/01/17 05:44:58;;;;;;;;;;;19.40;37.00;;;;;;3054144;19;4477;-28
2023/01/17 05:45:58;;;;;;;;;;;19.40;37.00;;;;;;3054318;19;4502;-29
2023/01/17 05:46:59;;;;;;;;;;;19.40;37.00;;;;;;3056534;19;4466;-28
2023/01/17 05:48:00;;;;;;;;;;;19.40;37.00;;;;;;3056112;19;4512;-30
2023/01/17 05:49:00;;;;;;;;;;;19.40;36.90;;;;;;3056285;19;4510;-27
2023/01/17 05:50:01;;;;;;;;;;;19.40;37.00;;;;;;3055600;19;4481;-28
2023/01/17 05:51:02;;;;;;;;;;;19.40;37.00;;;;;;3056485;19;4476;-28
2023/01/17 05:52:02;;;;;;;;;;;19.40;36.90;;;;;;3056658;19;4341;-29
2023/01/17 05:53:07;;;;;;;;;;;19.40;37.00;;;;;;3056035;19;4648;-27
2023/01/17 05:54:08;;;;;;;;;;;19.30;37.00;;;;;;3057040;19;4576;-31
2023/01/17 05:55:09;;;;;;;;;;;19.40;37.10;;;;;;3056935;19;4559;-29
2023/01/17 05:56:09;;;;;;;;;;;19.30;37.00;;;;;;3057024;19;4554;-27
2023/01/17 05:57:11;;;;;;;;;;;19.30;37.00;;;;;;3057738;19;931;-27
2023/01/17 05:58:16;;;;;;;;;;;19.30;36.90;;;;;;3056165;19;4647;-30
2023/01/17 05:59:17;;;;;;;;;;;19.30;36.90;;;;;;3056499;19;4641;-31
2023/01/17 06:00:18;;;;;;;;;;;19.30;37.00;;;;;;3057146;19;4565;-28
2023/01/17 06:01:19;;;;;;;;;;;19.30;37.00;;;;;;3056853;19;4605;-29
2023/01/17 06:02:19;;;;;;;;;;;19.30;37.00;;;;;;3055548;19;4355;-30
2023/01/17 06:03:20;;;;;;;;;;;19.30;37.00;;;;;;3057255;19;4399;-33
2023/01/17 06:04:21;;;;;;;;;;;19.30;37.00;;;;;;3055340;19;4412;-30
2023/01/17 06:05:21;;;;;;;;;;;19.30;37.20;;;;;;3056570;19;4573;-29
2023/01/17 06:06:22;;;;;;;;;;;19.40;37.10;;;;;;3055364;19;4512;-30
2023/01/17 06:07:23;;;;;;;;;;;19.40;37.00;;;;;;3055990;19;4553;-29
2023/01/17 06:08:23;;;;;;;;;;;19.40;36.80;;;;;;3055314;19;4391;-28
2023/01/17 06:09:24;;;;;;;;;;;19.50;36.90;;;;;;3055717;19;4510;-27
2023/01/17 06:10:25;;;;;;;;;;;19.50;36.80;;;;;;3055503;19;4517;-30
2023/01/17 06:11:25;;;;;;;;;;;19.50;36.70;;;;;;3056011;19;4395;-27
2023/01/17 06:12:26;;;;;;;;;;;19.50;36.50;;;;;;3056011;19;4479;-29
2023/01/17 06:13:27;;;;;;;;;;;19.50;36.60;;;;;;3056524;19;4513;-28
2023/01/17 06:14:27;;;;;;;;;;;19.60;36.60;;;;;;3056005;19;4386;-28
2023/01/17 06:15:28;;;;;;;;;;;19.60;36.60;;;;;;3056372;19;4563;-28
2023/01/17 06:16:29;;;;;;;;;;;19.50;36.60;;;;;;3056100;19;4400;-27
2023/01/17 06:17:29;;;;;;;;;;;19.50;36.50;;;;;;3055837;19;4584;-28
2023/01/17 06:18:30;;;;;;;;;;;19.50;36.50;;;;;;3056439;19;4546;-29
2023/01/17 06:19:31;;;;;;;;;;;19.50;36.50;;;;;;3055159;19;4532;-28
2023/01/17 06:20:32;;;;;;;;;;;19.50;36.70;;;;;;3055055;19;4481;-28
2023/01/17 06:21:33;;;;;;;;;;;19.50;36.70;;;;;;3055081;19;4601;-32
2023/01/17 06:22:34;;;;;;;;;;;19.50;37.00;;;;;;3055026;19;4568;-27
2023/01/17 06:23:34;;;;;;;;;;;19.50;36.60;;;;;;3056298;19;4533;-28
2023/01/17 06:24:35;;;;;;;;;;;19.50;36.70;;;;;;3054782;19;4354;-31
2023/01/17 06:25:37;;;;;;;;;;;19.50;36.60;;;;;;3055369;19;4513;-31
2023/01/17 06:26:38;;;;;;;;;;;19.50;36.70;;;;;;3055375;19;4518;-32
2023/01/17 06:27:38;;;;;;;;;;;19.50;36.80;;;;;;3055684;19;4395;-30
2023/01/17 06:28:39;;;;;;;;;;;19.40;36.70;;;;;;3055723;19;4505;-30
2023/01/17 06:29:39;;;;;;;;;;;19.40;36.60;;;;;;3055895;19;4334;-28
2023/01/17 06:30:41;;;;;;;;;;;19.40;36.60;;;;;;3056578;19;4942;-33
2023/01/17 06:31:41;;;;;;;;;;;19.40;36.60;;;;;;3055353;19;4552;-30
2023/01/17 06:32:42;;;;;;;;;;;19.40;36.70;;;;;;3055612;19;4433;-32
2023/01/17 06:33:43;;;;;;;;;;;19.40;36.70;;;;;;3055841;19;4454;-30
2023/01/17 06:34:43;;;;;;;;;;;19.40;36.80;;;;;;3056463;19;4477;-31
2023/01/17 06:35:50;;;;;;;;;;;19.40;36.70;;;;;;3056107;19;4570;-30
2023/01/17 06:36:51;;;;;;;;;;;19.40;36.70;;;;;;3056414;19;4325;-31
2023/01/17 06:37:54;;;;;;;;;;;19.50;36.70;;;;;;3055137;19;4489;-30
2023/01/17 06:38:54;;;;;;;;;;;19.50;36.60;;;;;;3055392;19;4533;-29
2023/01/17 06:39:55;;;;;;;;;;;19.60;36.50;;;;;;3053857;19;4465;-26
2023/01/17 06:40:59;;;;;;;;;;;19.60;36.50;;;;;;3054914;19;4602;-30
2023/01/17 06:41:59;;;;;;;;;;;19.60;36.40;;;;;;3055971;19;4411;-29
2023/01/17 06:43:04;;;;;;;;;;;19.60;36.40;;;;;;3056077;19;4362;-28
2023/01/17 06:44:06;;;;;;;;;;;19.60;36.30;;;;;;3056473;19;4386;-27
2023/01/17 06:45:07;;;;;;;;;;;19.60;36.20;;;;;;3055845;19;4494;-27
2023/01/17 06:46:08;;;;;;;;;;;19.60;36.20;;;;;;3056033;19;4524;-31
2023/01/17 06:47:08;;;;;;;;;;;19.60;36.10;;;;;;3054486;19;4734;-27
2023/01/17 06:48:09;;;;;;;;;;;19.60;36.20;;;;;;3054906;19;4464;-30
2023/01/17 06:49:09;;;;;;;;;;;19.60;36.30;;;;;;3054872;19;4559;-27
2023/01/17 06:50:12;;;;;;;;;;;19.60;36.20;;;;;;3054645;19;4646;-27
2023/01/17 06:51:13;;;;;;;;;;;19.60;36.20;;;;;;3055690;19;892;-31
2023/01/17 06:52:14;;;;;;;;;;;19.70;36.20;;;;;;3054072;19;4419;-30
2023/01/17 06:53:14;;;;;;;;;;;19.70;36.20;;;;;;3055687;19;4597;-29
2023/01/17 06:54:15;;;;;;;;;;;19.70;36.20;;;;;;3055188;19;4426;-29
2023/01/17 06:55:16;;;;;;;;;;;19.80;36.10;;;;;;3056321;19;4367;-27
2023/01/17 06:56:16;;;;;;;;;;;19.80;36.00;;;;;;3054946;19;4608;-27
2023/01/17 06:57:17;;;;;;;;;;;19.80;36.10;;;;;;3056537;19;4548;-29
2023/01/17 06:58:18;;;;;;;;;;;19.80;36.00;;;;;;3054942;19;4412;-30
2023/01/17 06:59:18;;;;;;;;;;;19.80;36.00;;;;;;3056490;19;4552;-29
2023/01/17 07:00:19;;;;;;;;;;;19.80;36.00;;;;;;3054815;19;4601;-27
2023/01/17 07:01:20;;;;;;;;;;;19.80;36.00;;;;;;3055017;19;4591;-29
2023/01/17 07:02:20;;;;;;;;;;;19.80;35.90;;;;;;3054294;19;4545;-30
2023/01/17 07:03:23;;;;;;;;;;;19.80;35.90;;;;;;3056216;19;4392;-28
2023/01/17 07:04:24;;;;;;;;;;;19.80;36.00;;;;;;3054842;19;4583;-28
2023/01/17 07:05:24;;;;;;;;;;;19.80;35.90;;;;;;3056234;19;4485;-31
2023/01/17 07:06:27;;;;;;;;;;;19.80;35.80;;;;;;3055122;19;4705;-28
2023/01/17 07:07:28;;;;;;;;;;;19.80;35.80;;;;;;3055897;19;4512;-28
2023/01/17 07:08:29;;;;;;;;;;;19.80;35.80;;;;;;3054320;19;4366;-30
2023/01/17 07:09:29;;;;;;;;;;;19.80;35.90;;;;;;3056103;19;4467;-29
2023/01/17 07:10:30;;;;;;;;;;;19.80;35.90;;;;;;3055239;19;4595;-27
2023/01/17 07:11:30;;;;;;;;;;;19.80;35.80;;;;;;3055179;19;4707;-27
2023/01/17 07:12:31;;;;;;;;;;;19.80;35.70;;;;;;3056152;19;4717;-29
2023/01/17 07:13:35;;;;;;;;;;;19.80;35.80;;;;;;3055936;19;4369;-29
2023/01/17 07:14:36;;;;;;;;;;;19.80;35.70;;;;;;3055576;19;4543;-29
2023/01/17 07:15:37;;;;;;;;;;;19.70;35.70;;;;;;3056001;19;4343;-26
2023/01/17 07:16:37;;;;;;;;;;;19.70;35.80;;;;;;3055602;19;4553;-28
2023/01/17 07:17:38;;;;;;;;;;;19.70;35.80;;;;;;3056119;19;4463;-27
2023/01/17 07:18:39;;;;;;;;;;;19.70;35.90;;;;;;3054726;19;4373;-27
2023/01/17 07:19:39;;;;;;;;;;;19.70;35.90;;;;;;3054827;19;4415;-28
2023/01/17 07:20:42;;;;;;;;;;;19.60;35.80;;;;;;3054762;19;4558;-29
2023/01/17 07:21:43;;;;;;;;;;;19.60;36.00;;;;;;3055066;19;4402;-26
2023/01/17 07:22:44;;;;;;;;;;;19.70;36.00;;;;;;3054638;19;4408;-28
2023/01/17 07:23:44;;;;;;;;;;;19.70;36.00;;;;;;3054811;19;4551;-28
2023/01/17 07:24:45;;;;;;;;;;;19.70;35.80;;;;;;3055500;19;4464;-28
2023/01/17 07:25:56;;;;;;;;;;;19.80;35.70;;;;;;3055683;19;4401;-27
2023/01/17 07:26:56;;;;;;;;;;;19.80;35.80;;;;;;3054302;19;4298;-27
2023/01/17 07:27:57;;;;;;;;;;;19.80;35.60;;;;;;3054744;19;4519;-28
2023/01/17 07:28:58;;;;;;;;;;;19.80;35.60;;;;;;3054570;19;4473;-33
2023/01/17 07:29:59;;;;;;;;;;;19.80;35.50;;;;;;3054960;19;4519;-28
2023/01/17 07:31:06;;;;;;;;;;;19.80;36.20;;;;;;3054636;19;4305;-27